Zeran (malta) — 9HHJ5 — position and weather

sailwx.info

Track history (hours):
 
Tides and Currents Weather Stations Pressure Air Temp Water Temp Dewpoint Dewpoint Depression Visibility Wind Speed Wind Dir Waves Ship Positions

Zeran (malta)

Last reported at 2016-Sep-25 17:18 UTC. Time now 2016-Sep-29 11:52 UTC.
Position N 43°01' E 009°37'.

Length 148 m; beam 24 m.

Type: Ship (hazmat cat A). MMSI: 249846000.

Date/timePositionNaut miles runAvg speedWind from/ knotsBaromVisibWave heightAir tempDewpointWater temp
2016-Sep-25 17:18N 43°01' E 009°37'710.1
2016-Sep-25 16:33N 43°08' E 009°33'1010.5
2016-Sep-25 15:33N 43°18' E 009°28'1110.8
2016-Sep-25 14:33N 43°28' E 009°22'2210.8
2016-Sep-25 12:33N 43°48' E 009°12'1110.8
2016-Sep-25 11:33N 43°58' E 009°07'1111.0
2016-Sep-25 10:33N 44°08' E 009°01'1111.2
2016-Sep-25 09:33N 44°19' E 008°55'6 2.9
2016-Sep-25 07:31N 44°24' E 008°53'0 0.0
2016-Sep-25 04:31N 44°24' E 008°53'0 0.0
2016-Sep-25 00:31N 44°24' E 008°53'0 0.0
2016-Sep-24 22:31N 44°24' E 008°53'0 0.0
2016-Sep-24 21:31N 44°24' E 008°53'0 0.0
2016-Sep-24 19:31N 44°24' E 008°53'0 0.0
2016-Sep-24 18:28N 44°24' E 008°53'0 0.0
2016-Sep-24 17:31N 44°24' E 008°53'0 0.0
2016-Sep-24 16:28N 44°24' E 008°53'0 0.0
2016-Sep-24 14:31N 44°24' E 008°53'0 0.0
2016-Sep-24 12:31N 44°24' E 008°53'0 0.0
2016-Sep-24 10:31N 44°24' E 008°53'0 0.0
2016-Sep-24 09:31N 44°24' E 008°53'2 0.3
2016-Sep-24 03:33N 44°24' E 008°54'1010.1
2016-Sep-24 02:33N 44°15' E 009°02'1212.5
2016-Sep-24 01:33N 44°04' E 009°09'1212.5
2016-Sep-24 00:33N 43°52' E 009°14'6412.7
2016-Sep-23 19:32N 42°53' E 009°46'2813.3
2016-Sep-23 17:26N 42°34' E 010°15'1413.6
2016-Sep-23 16:26N 42°26' E 010°29'  
2016-Sep-18 15:34N 43°21' E 009°23'1111.1
2016-Sep-18 14:33N 43°32' E 009°18'4310.8
2016-Sep-18 10:33N 44°12' E 008°57'1110.7
2016-Sep-18 09:33N 44°23' E 008°54'2 0.3
2016-Sep-18 02:31N 44°24' E 008°53'0 0.0
2016-Sep-18 01:31N 44°24' E 008°53'0 0.0
2016-Sep-18 00:31N 44°24' E 008°53'0 0.0
2016-Sep-17 22:31N 44°24' E 008°53'0 0.0
2016-Sep-17 21:28N 44°24' E 008°53'0 0.0
2016-Sep-17 20:31N 44°24' E 008°53'0 0.0
2016-Sep-17 19:16N 44°24' E 008°53'29 5.1
2016-Sep-17 13:33N 43°58' E 009°11'1313.4
2016-Sep-17 12:33N 43°46' E 009°17'2613.1
2016-Sep-17 10:33N 43°21' E 009°31'1312.8
2016-Sep-17 09:33N 43°09' E 009°37'1812.8
2016-Sep-17 08:09N 42°53' E 009°48'20213.7
2016-Sep-16 17:22N 40°53' E 013°26'  
Track history (hours):
 
Tides and Currents Weather Stations Pressure Air Temp Water Temp Dewpoint Dewpoint Depression Visibility Wind Speed Wind Dir Waves Ship Positions

Zeran (malta)

Last reported at 2016-Sep-25 17:18 UTC. Time now 2016-Sep-29 11:52 UTC.
Position N 43°01' E 009°37'.

Length 148 m; beam 24 m.

Type: Ship (hazmat cat A). MMSI: 249846000.

Date/timePositionNaut miles runAvg speedWind from/ knotsBaromVisibWave heightAir tempDewpointWater temp
2016-Sep-25 17:18N 43°01' E 009°37'710.1
2016-Sep-25 16:33N 43°08' E 009°33'1010.5
2016-Sep-25 15:33N 43°18' E 009°28'1110.8
2016-Sep-25 14:33N 43°28' E 009°22'2210.8
2016-Sep-25 12:33N 43°48' E 009°12'1110.8
2016-Sep-25 11:33N 43°58' E 009°07'1111.0
2016-Sep-25 10:33N 44°08' E 009°01'1111.2
2016-Sep-25 09:33N 44°19' E 008°55'6 2.9
2016-Sep-25 07:31N 44°24' E 008°53'0 0.0
2016-Sep-25 04:31N 44°24' E 008°53'0 0.0
2016-Sep-25 00:31N 44°24' E 008°53'0 0.0
2016-Sep-24 22:31N 44°24' E 008°53'0 0.0
2016-Sep-24 21:31N 44°24' E 008°53'0 0.0
2016-Sep-24 19:31N 44°24' E 008°53'0 0.0
2016-Sep-24 18:28N 44°24' E 008°53'0 0.0
2016-Sep-24 17:31N 44°24' E 008°53'0 0.0
2016-Sep-24 16:28N 44°24' E 008°53'0 0.0
2016-Sep-24 14:31N 44°24' E 008°53'0 0.0
2016-Sep-24 12:31N 44°24' E 008°53'0 0.0
2016-Sep-24 10:31N 44°24' E 008°53'0 0.0
2016-Sep-24 09:31N 44°24' E 008°53'2 0.3
2016-Sep-24 03:33N 44°24' E 008°54'1010.1
2016-Sep-24 02:33N 44°15' E 009°02'1212.5
2016-Sep-24 01:33N 44°04' E 009°09'1212.5
2016-Sep-24 00:33N 43°52' E 009°14'6412.7
2016-Sep-23 19:32N 42°53' E 009°46'2813.3
2016-Sep-23 17:26N 42°34' E 010°15'1413.6
2016-Sep-23 16:26N 42°26' E 010°29'  
2016-Sep-18 15:34N 43°21' E 009°23'1111.1
2016-Sep-18 14:33N 43°32' E 009°18'4310.8
2016-Sep-18 10:33N 44°12' E 008°57'1110.7
2016-Sep-18 09:33N 44°23' E 008°54'2 0.3
2016-Sep-18 02:31N 44°24' E 008°53'0 0.0
2016-Sep-18 01:31N 44°24' E 008°53'0 0.0
2016-Sep-18 00:31N 44°24' E 008°53'0 0.0
2016-Sep-17 22:31N 44°24' E 008°53'0 0.0
2016-Sep-17 21:28N 44°24' E 008°53'0 0.0
2016-Sep-17 20:31N 44°24' E 008°53'0 0.0
2016-Sep-17 19:16N 44°24' E 008°53'29 5.1
2016-Sep-17 13:33N 43°58' E 009°11'1313.4
2016-Sep-17 12:33N 43°46' E 009°17'2613.1
2016-Sep-17 10:33N 43°21' E 009°31'1312.8
2016-Sep-17 09:33N 43°09' E 009°37'1812.8
2016-Sep-17 08:09N 42°53' E 009°48'20213.7
2016-Sep-16 17:22N 40°53' E 013°26'  

Dump ship's entire track history